createdAt,value
2018-09-23T00:02:51.576Z,8.17
2018-09-23T00:08:13.702Z,8.30
2018-09-23T00:13:35.742Z,9.60
2018-09-23T00:18:57.726Z,9.97
2018-09-23T00:24:21.104Z,10.00
2018-09-23T00:29:47.721Z,9.73
2018-09-23T00:35:09.798Z,9.17
2018-09-23T00:40:31.514Z,10.47
2018-09-23T00:45:53.646Z,10.03
2018-09-23T00:51:16.948Z,9.57
2018-09-23T00:56:39.505Z,10.10
2018-09-23T01:02:01.757Z,9.00
2018-09-23T01:07:23.631Z,8.57
2018-09-23T01:12:46.431Z,8.57
2018-09-23T01:18:08.585Z,8.53
2018-09-23T01:23:32.275Z,9.33
2018-09-23T01:28:54.201Z,9.67
2018-09-23T01:34:16.049Z,10.27
2018-09-23T01:39:38.014Z,10.10
2018-09-23T01:45:00.038Z,9.73
2018-09-23T01:50:22.157Z,9.30
2018-09-23T01:55:45.516Z,8.20
2018-09-23T02:01:07.520Z,7.67
2018-09-23T02:06:29.385Z,7.30
2018-09-23T02:11:51.409Z,7.80
2018-09-23T02:17:13.315Z,9.30
2018-09-23T02:22:35.482Z,8.90
2018-09-23T02:27:57.422Z,7.67
2018-09-23T02:33:19.578Z,7.40
2018-09-23T02:38:41.546Z,7.90
2018-09-23T02:44:03.823Z,6.63
2018-09-23T02:49:25.470Z,6.40
2018-09-23T02:54:47.741Z,6.30
2018-09-23T03:00:10.873Z,6.33
2018-09-23T03:05:33.073Z,6.63
2018-09-23T03:10:55.170Z,7.20
2018-09-23T03:16:17.214Z,7.00
2018-09-23T03:21:38.978Z,7.37
2018-09-23T03:27:01.074Z,7.77
2018-09-23T03:32:23.182Z,7.93
2018-09-23T03:37:45.146Z,7.53
2018-09-23T03:43:07.042Z,6.80
2018-09-23T03:48:29.109Z,7.10
2018-09-23T03:53:50.905Z,6.20
2018-09-23T03:59:13.155Z,6.10
2018-09-23T04:04:35.033Z,5.00
2018-09-23T04:09:56.945Z,5.23
2018-09-23T04:15:18.646Z,5.00
2018-09-23T04:20:40.789Z,5.47
2018-09-23T04:26:02.522Z,5.60
2018-09-23T04:31:24.628Z,4.70
2018-09-23T04:36:46.921Z,5.13
2018-09-23T04:42:08.866Z,4.57
2018-09-23T04:47:31.197Z,5.53
2018-09-23T04:52:53.062Z,5.37
2018-09-23T04:58:15.289Z,5.43
2018-09-23T05:03:37.075Z,4.83
2018-09-23T05:08:59.587Z,5.10
2018-09-23T05:14:21.879Z,6.00
2018-09-23T05:19:43.740Z,6.00
2018-09-23T05:25:05.902Z,5.93
2018-09-23T05:30:27.701Z,5.63
2018-09-23T05:35:49.913Z,5.30
2018-09-23T05:41:12.098Z,5.17
2018-09-23T05:46:34.051Z,6.07
2018-09-23T05:51:55.686Z,5.80
2018-09-23T05:57:17.833Z,6.03
2018-09-23T06:02:39.656Z,5.50
2018-09-23T06:08:01.568Z,4.80
2018-09-23T06:13:25.469Z,5.80
2018-09-23T06:18:47.505Z,4.30
2018-09-23T06:24:09.633Z,4.27
2018-09-23T06:29:31.439Z,4.27
2018-09-23T06:34:53.166Z,5.00
2018-09-23T06:40:15.199Z,4.40
2018-09-23T06:45:37.049Z,5.00
2018-09-23T06:50:59.117Z,4.80
2018-09-23T06:56:20.841Z,4.57
2018-09-23T07:01:42.849Z,4.90
2018-09-23T07:07:05.878Z,4.70
2018-09-23T07:12:27.980Z,4.33
2018-09-23T07:17:50.154Z,4.70
2018-09-23T07:23:12.239Z,4.67
2018-09-23T07:28:33.948Z,4.23
2018-09-23T07:33:56.250Z,4.70
2018-09-23T07:39:20.362Z,4.43
2018-09-23T07:44:42.123Z,4.00
2018-09-23T07:50:04.313Z,3.43
2018-09-23T07:55:26.487Z,3.40
2018-09-23T08:00:48.409Z,4.03
2018-09-23T08:06:10.714Z,3.20
2018-09-23T08:11:32.489Z,3.33
2018-09-23T08:16:54.604Z,3.57
2018-09-23T08:22:16.773Z,2.93
2018-09-23T08:27:38.726Z,3.13
2018-09-23T08:33:01.045Z,3.10
2018-09-23T08:38:23.264Z,4.27
2018-09-23T08:43:45.341Z,3.40
2018-09-23T08:49:07.185Z,3.50
2018-09-23T08:54:30.481Z,4.10
2018-09-23T08:59:52.358Z,3.17
2018-09-23T09:05:14.811Z,3.40
2018-09-23T09:10:36.471Z,2.57
2018-09-23T09:15:58.474Z,3.07
2018-09-23T09:21:20.323Z,3.20
2018-09-23T09:26:42.632Z,2.60
2018-09-23T09:32:04.346Z,2.67
2018-09-23T09:37:26.396Z,2.60
2018-09-23T09:42:48.317Z,2.77
2018-09-23T09:48:10.495Z,2.30
2018-09-23T09:53:32.511Z,2.20
2018-09-23T09:58:55.622Z,3.13
2018-09-23T10:04:17.495Z,2.57
2018-09-23T10:09:39.315Z,2.43
2018-09-23T10:15:01.642Z,2.37
2018-09-23T10:20:23.234Z,1.90
2018-09-23T10:25:45.503Z,2.80
2018-09-23T10:31:08.731Z,2.80
2018-09-23T10:36:30.719Z,3.53
2018-09-23T10:41:53.138Z,2.87
2018-09-23T10:47:15.097Z,3.37
2018-09-23T10:52:37.918Z,2.63
2018-09-23T10:57:59.991Z,2.03
2018-09-23T11:03:22.031Z,2.23
2018-09-23T11:08:43.961Z,2.27
2018-09-23T11:14:05.793Z,2.40
2018-09-23T11:19:27.866Z,2.00
2018-09-23T11:24:49.811Z,1.07
2018-09-23T11:30:11.985Z,0.50
2018-09-23T11:35:34.984Z,0.20
2018-09-23T11:40:56.748Z,0.10
2018-09-23T11:46:18.884Z,0.30
2018-09-23T11:51:40.593Z,0.10
2018-09-23T11:57:02.710Z,0.10
2018-09-23T12:02:25.212Z,0.33
2018-09-23T12:07:47.298Z,0.20
2018-09-23T12:13:09.469Z,0.20
2018-09-23T12:18:31.361Z,0.20
2018-09-23T12:23:53.563Z,0.10
2018-09-23T12:29:15.346Z,0.20
2018-09-23T12:34:37.435Z,0.10
2018-09-23T12:39:59.690Z,0.13
2018-09-23T12:45:22.527Z,0.20
2018-09-23T12:50:44.527Z,0.40
2018-09-23T12:56:06.339Z,0.20
2018-09-23T13:01:28.570Z,0.10
2018-09-23T13:06:50.801Z,0.10
2018-09-23T13:12:13.782Z,0.17
2018-09-23T13:17:35.808Z,0.30
2018-09-23T13:22:58.008Z,0.20
2018-09-23T13:28:19.832Z,0.10
2018-09-23T13:33:42.049Z,0.20
2018-09-23T13:39:04.835Z,0.30
2018-09-23T13:44:26.711Z,0.30
2018-09-23T13:49:48.765Z,0.30
2018-09-23T13:55:10.589Z,0.40
2018-09-23T14:00:32.802Z,0.60
2018-09-23T14:05:54.688Z,0.50
2018-09-23T14:11:17.253Z,1.03
2018-09-23T14:16:39.646Z,0.63
2018-09-23T14:22:01.678Z,0.73
2018-09-23T14:27:23.751Z,0.60
2018-09-23T14:32:46.255Z,0.70
2018-09-23T14:38:08.328Z,0.70
2018-09-23T14:43:30.340Z,0.70
2018-09-23T14:48:52.312Z,0.50
2018-09-23T14:54:14.810Z,0.53
2018-09-23T14:59:39.815Z,0.70
2018-09-23T15:05:01.561Z,1.03
2018-09-23T15:10:23.706Z,0.90
2018-09-23T15:15:47.970Z,1.10
2018-09-23T15:21:10.606Z,1.30
2018-09-23T15:26:32.573Z,1.70
2018-09-23T15:31:54.505Z,1.57
2018-09-23T15:37:16.849Z,1.80
2018-09-23T15:42:41.141Z,1.40
2018-09-23T15:48:03.009Z,1.40
2018-09-23T15:53:25.382Z,1.10
2018-09-23T15:58:48.903Z,1.23
2018-09-23T16:04:11.251Z,1.00
2018-09-23T16:09:33.038Z,0.77
2018-09-23T16:14:55.252Z,0.67
2018-09-23T16:20:17.120Z,0.50
2018-09-23T16:25:41.547Z,0.67
2018-09-23T16:31:04.005Z,0.30
2018-09-23T16:36:26.267Z,0.50
2018-09-23T16:41:48.128Z,0.50
2018-09-23T16:47:10.207Z,0.67
2018-09-23T16:52:32.092Z,0.50
2018-09-23T16:57:54.715Z,0.80
2018-09-23T17:03:17.638Z,0.80
2018-09-23T17:08:39.774Z,0.77
2018-09-23T17:14:01.546Z,0.70
2018-09-23T17:19:24.125Z,0.90
2018-09-23T17:24:45.813Z,0.80
2018-09-23T17:30:08.546Z,0.60
2018-09-23T17:35:30.486Z,0.83
2018-09-23T17:40:52.317Z,0.67
2018-09-23T17:46:14.586Z,0.70
2018-09-23T17:51:36.440Z,0.90
2018-09-23T17:56:58.579Z,0.97
2018-09-23T18:02:20.981Z,1.10
2018-09-23T18:07:43.038Z,1.20
2018-09-23T18:13:05.226Z,1.00
2018-09-23T18:18:27.298Z,1.00
2018-09-23T18:23:49.504Z,0.90
2018-09-23T18:29:11.405Z,0.80
2018-09-23T18:34:34.858Z,1.17
2018-09-23T18:39:56.723Z,1.00
2018-09-23T18:45:18.962Z,1.00
2018-09-23T18:50:40.778Z,0.80
2018-09-23T18:56:02.996Z,0.93
2018-09-23T19:01:24.909Z,0.70
2018-09-23T19:06:47.439Z,0.93
2018-09-23T19:12:09.816Z,0.83
2018-09-23T19:17:32.345Z,1.10
2018-09-23T19:22:59.151Z,0.93
2018-09-23T19:28:22.200Z,0.93
2018-09-23T19:33:44.370Z,0.93
2018-09-23T19:39:09.512Z,0.90
2018-09-23T19:44:31.553Z,0.90
2018-09-23T19:49:53.742Z,0.97
2018-09-23T19:55:16.305Z,0.97
2018-09-23T20:00:38.372Z,1.00
2018-09-23T20:06:00.536Z,1.00
2018-09-23T20:11:22.906Z,0.90
2018-09-23T20:16:44.676Z,1.00
2018-09-23T20:22:08.168Z,1.00
2018-09-23T20:27:30.517Z,1.17
2018-09-23T20:32:52.908Z,1.43
2018-09-23T20:38:15.092Z,1.30
2018-09-23T20:43:37.576Z,1.00
2018-09-23T20:48:59.387Z,1.00
2018-09-23T20:54:21.603Z,1.07
2018-09-23T20:59:43.460Z,1.10
2018-09-23T21:05:05.973Z,1.03
2018-09-23T21:10:27.650Z,1.50
2018-09-23T21:15:49.984Z,1.20
2018-09-23T21:21:11.794Z,0.93
2018-09-23T21:26:33.801Z,1.20
2018-09-23T21:31:55.460Z,1.13
2018-09-23T21:37:17.554Z,1.30
2018-09-23T21:42:39.540Z,1.27
2018-09-23T21:48:01.799Z,1.03
2018-09-23T21:53:23.707Z,1.00
2018-09-23T21:58:46.050Z,0.87
2018-09-23T22:04:08.307Z,0.93
2018-09-23T22:09:30.199Z,1.17
2018-09-23T22:14:52.367Z,1.10
2018-09-23T22:20:14.298Z,1.20
2018-09-23T22:25:36.298Z,1.00
2018-09-23T22:30:58.010Z,1.73
2018-09-23T22:36:20.140Z,1.10
2018-09-23T22:41:41.991Z,1.10
2018-09-23T22:47:04.090Z,1.13
2018-09-23T22:52:26.026Z,1.13
2018-09-23T22:57:47.958Z,1.30
2018-09-23T23:03:09.738Z,1.33
2018-09-23T23:08:31.883Z,1.57
2018-09-23T23:13:53.770Z,1.50
2018-09-23T23:19:15.750Z,1.10
2018-09-23T23:24:37.682Z,1.40
2018-09-23T23:29:59.755Z,1.10
2018-09-23T23:35:21.701Z,0.97
2018-09-23T23:40:43.837Z,1.20
2018-09-23T23:46:05.909Z,1.30
2018-09-23T23:51:27.863Z,1.10
2018-09-23T23:56:51.267Z,0.87
